Time;durP1;ratioP1;P1;durP2;ratioP2;P2;SDS_P1;SDS_P2;PMS_P1;PMS_P2;Temp;Humidity;BMP_temperature;BMP_pressure;BME280_temperature;BME280_humidity;BME280_pressure;Samples;Min_cycle;Max_cycle;Signal;HPM_P1;HPM_P2
2022/12/04 00:01:15;;;;;;;46.50;22.48;;;;;;;5.77;57.54;101696.69;5063449;28;20071;-64
2022/12/04 00:03:43;;;;;;;46.53;23.45;;;;;;;5.76;57.56;101687.03;5063468;28;20061;-64
2022/12/04 00:06:13;;;;;;;44.75;22.33;;;;;;;5.74;57.78;101687.22;5064235;28;20061;-64
2022/12/04 00:08:41;;;;;;;41.00;23.10;;;;;;;5.71;57.24;101687.53;5066365;28;20044;-64
2022/12/04 00:11:10;;;;;;;42.78;22.65;;;;;;;5.74;57.75;101691.72;5063594;28;20065;-64
2022/12/04 00:13:38;;;;;;;43.25;21.80;;;;;;;5.72;57.56;101685.72;5062460;28;20053;-64
2022/12/04 00:16:10;;;;;;;44.88;22.70;;;;;;;5.69;57.51;101672.72;5064454;28;20053;-64
2022/12/04 00:18:38;;;;;;;44.60;23.60;;;;;;;5.71;57.70;101674.22;5061216;28;20049;-64
2022/12/04 00:21:07;;;;;;;45.78;22.33;;;;;;;5.67;57.63;101669.38;5062838;28;20143;-64
2022/12/04 00:23:36;;;;;;;48.47;23.63;;;;;;;5.68;57.73;101673.72;5066275;28;20131;-64
2022/12/04 00:26:09;;;;;;;47.30;23.85;;;;;;;5.66;57.59;101673.88;5059385;28;20048;-64
2022/12/04 00:28:37;;;;;;;48.10;24.10;;;;;;;5.66;57.49;101673.88;5067954;28;20076;-64
2022/12/04 00:31:06;;;;;;;45.30;23.75;;;;;;;5.68;57.84;101671.06;5062124;28;20159;-64
2022/12/04 00:33:36;;;;;;;45.38;22.83;;;;;;;5.69;57.71;101668.22;5066212;28;20049;-64
2022/12/04 00:36:06;;;;;;;40.78;22.80;;;;;;;5.68;57.49;101663.88;5056379;28;20099;-64
2022/12/04 00:38:34;;;;;;;42.65;21.70;;;;;;;5.66;57.83;101667.72;5059356;28;20045;-64
2022/12/04 00:41:02;;;;;;;44.00;22.95;;;;;;;5.64;57.74;101678.56;5063113;28;20108;-65
2022/12/04 00:43:31;;;;;;;44.67;22.77;;;;;;;5.62;57.52;101682.41;5066070;28;20041;-64
2022/12/04 00:45:58;;;;;;;46.08;22.95;;;;;;;5.62;58.24;101685.88;5062228;28;20051;-64
2022/12/04 00:48:26;;;;;;;42.42;23.70;;;;;;;5.62;57.95;101675.22;5062577;28;20052;-65
2022/12/04 00:50:57;;;;;;;47.28;23.52;;;;;;;5.64;58.21;101683.88;5066229;28;20053;-64
2022/12/04 00:53:25;;;;;;;41.38;22.63;;;;;;;5.65;57.83;101684.72;5071088;28;20052;-64
2022/12/04 00:55:53;;;;;;;42.58;22.17;;;;;;;5.63;57.67;101676.91;5060419;28;20219;-64
2022/12/04 00:58:20;;;;;;;49.75;24.10;;;;;;;5.62;57.74;101677.88;5066695;28;20041;-63
2022/12/04 01:00:48;;;;;;;45.42;23.35;;;;;;;5.64;57.85;101683.88;5064327;28;20112;-64
2022/12/04 01:03:16;;;;;;;40.63;22.27;;;;;;;5.62;57.68;101669.91;5061722;28;20053;-64
2022/12/04 01:05:45;;;;;;;45.70;23.00;;;;;;;5.64;57.77;101688.38;5066858;28;20045;-63
2022/12/04 01:08:14;;;;;;;43.83;22.58;;;;;;;5.61;57.75;101684.22;5050825;28;20141;-63
2022/12/04 01:10:42;;;;;;;42.95;23.20;;;;;;;5.61;57.57;101686.91;5064937;28;20049;-63
2022/12/04 01:13:10;;;;;;;41.13;23.00;;;;;;;5.61;57.75;101684.22;5060766;28;20055;-64
2022/12/04 01:15:39;;;;;;;47.65;24.00;;;;;;;5.60;57.74;101685.22;5064480;28;20041;-64
2022/12/04 01:18:07;;;;;;;44.28;23.33;;;;;;;5.61;57.88;101684.22;5062678;28;20113;-64
2022/12/04 01:20:35;;;;;;;43.13;22.33;;;;;;;5.59;57.71;101688.91;5074654;28;20123;-64
2022/12/04 01:23:03;;;;;;;42.92;23.00;;;;;;;5.57;57.93;101689.06;5063662;28;20059;-64
2022/12/04 01:25:32;;;;;;;42.67;22.90;;;;;;;5.58;58.06;101687.22;5064675;28;20186;-63
2022/12/04 01:28:00;;;;;;;44.92;23.80;;;;;;;5.60;57.82;101685.22;5066152;28;20138;-64
2022/12/04 01:30:28;;;;;;;41.13;21.67;;;;;;;5.58;57.70;101687.22;5064761;28;20088;-64
2022/12/04 01:32:56;;;;;;;45.78;22.90;;;;;;;5.56;57.66;101684.72;5064401;28;20104;-64
2022/12/04 01:35:23;;;;;;;47.47;23.75;;;;;;;5.56;58.02;101681.22;5065168;28;20037;-63
2022/12/04 01:37:51;;;;;;;39.40;22.08;;;;;;;5.55;57.97;101684.91;5064617;28;20059;-64
2022/12/04 01:40:19;;;;;;;42.97;23.05;;;;;;;5.55;57.92;101684.91;5061727;28;20069;-64
2022/12/04 01:42:49;;;;;;;42.97;22.27;;;;;;;5.56;57.94;101681.22;5071344;28;20080;-64
2022/12/04 01:45:38;;;;;;;45.45;22.95;;;;;;;5.59;58.08;101685.41;5066405;28;20056;-64
2022/12/04 01:48:12;;;;;;;44.35;22.15;;;;;;;5.57;57.75;101678.41;5068259;28;20053;-64
2022/12/04 01:50:41;;;;;;;44.28;24.10;;;;;;;5.57;57.73;101680.22;5062917;28;20068;-66
2022/12/04 01:53:09;;;;;;;46.08;23.77;;;;;;;5.54;57.90;101668.06;5063254;28;20061;-64
2022/12/04 01:55:37;;;;;;;41.53;21.55;;;;;;;5.54;57.76;101670.75;5072126;28;20072;-64
2022/12/04 01:58:07;;;;;;;42.38;22.67;;;;;;;5.54;58.18;101672.56;5072065;28;20049;-63
2022/12/04 02:00:35;;;;;;;42.60;22.00;;;;;;;5.53;57.89;101673.56;5063032;28;20048;-64
2022/12/04 02:03:02;;;;;;;44.58;22.67;;;;;;;5.52;57.64;101672.75;5062101;28;20079;-64
2022/12/04 02:05:30;;;;;;;41.08;21.88;;;;;;;5.51;58.17;101670.25;5061477;28;20202;-63
2022/12/04 02:08:01;;;;;;;41.65;22.40;;;;;;;5.49;57.89;101667.75;5063378;28;20049;-65
2022/12/04 02:10:40;;;;;;;43.67;23.02;;;;;;;5.53;58.31;101662.91;5061566;28;20068;-64
2022/12/04 02:13:16;;;;;;;40.65;23.15;;;;;;;5.50;57.90;101669.41;5062083;28;20049;-64
2022/12/04 02:15:51;;;;;;;41.97;23.65;;;;;;;5.52;58.25;101671.91;5060721;28;20105;-64
2022/12/04 02:18:29;;;;;;;44.10;21.25;;;;;;;5.50;58.20;101665.91;5056465;28;20059;-64
2022/12/04 02:21:05;;;;;;;40.88;22.63;;;;;;;5.47;57.64;101667.06;5061241;28;20095;-64
2022/12/04 02:23:55;;;;;;;39.15;22.13;;;;;;;5.48;57.83;101665.25;5062300;28;20045;-64
2022/12/04 02:26:39;;;;;;;42.28;22.55;;;;;;;5.49;57.86;101666.91;5054182;28;20053;-64
2022/12/04 02:29:16;;;;;;;43.10;23.33;;;;;;;5.51;57.87;101672.91;5067091;28;20059;-64
2022/12/04 02:31:51;;;;;;;39.42;22.88;;;;;;;5.51;58.33;101667.56;5068857;28;20120;-64
2022/12/04 02:34:26;;;;;;;42.85;23.75;;;;;;;5.51;58.18;101657.75;5056327;28;20045;-64
2022/12/04 02:36:59;;;;;;;42.00;22.02;;;;;;;5.50;57.99;101657.91;5059733;28;20041;-64
2022/12/04 02:39:35;;;;;;;41.50;22.98;;;;;;;5.50;58.22;101660.56;5052510;28;20053;-64
2022/12/04 02:42:07;;;;;;;42.67;23.17;;;;;;;5.49;57.81;101666.91;5061020;28;20137;-63
2022/12/04 02:44:41;;;;;;;40.88;22.10;;;;;;;5.49;57.91;101650.91;5062105;28;20072;-63
2022/12/04 02:47:12;;;;;;;40.85;22.02;;;;;;;5.48;58.15;101654.59;5059002;28;20096;-64
2022/12/04 02:49:44;;;;;;;41.63;21.98;;;;;;;5.47;57.72;101664.41;5059830;28;20056;-63
2022/12/04 02:52:18;;;;;;;40.28;22.42;;;;;;;5.44;57.67;101656.75;5056124;28;20063;-64
2022/12/04 02:54:50;;;;;;;41.80;24.08;;;;;;;5.46;57.92;101657.41;5056194;28;20049;-64
2022/12/04 02:57:22;;;;;;;41.97;22.77;;;;;;;5.48;57.82;101649.25;5053993;28;20120;-63
2022/12/04 02:59:53;;;;;;;37.55;22.35;;;;;;;5.45;58.00;101655.75;5054359;28;20047;-64
2022/12/04 03:02:28;;;;;;;39.00;22.67;;;;;;;5.45;58.18;101668.25;5058429;28;20051;-65
2022/12/04 03:05:00;;;;;;;41.50;23.70;;;;;;;5.41;57.92;101664.25;5061040;28;20056;-64
2022/12/04 03:07:35;;;;;;;43.25;24.20;;;;;;;5.43;58.15;101664.91;5061057;28;20041;-64
2022/12/04 03:10:09;;;;;;;41.95;22.90;;;;;;;5.41;57.91;101665.09;5056254;28;20075;-64
2022/12/04 03:12:42;;;;;;;42.08;23.48;;;;;;;5.43;57.80;101656.91;5061271;28;20046;-64
2022/12/04 03:15:18;;;;;;;43.95;24.02;;;;;;;5.44;57.82;101662.09;5054890;28;20128;-64
2022/12/04 03:17:52;;;;;;;41.33;22.67;;;;;;;5.42;58.05;101658.75;5058880;28;20289;-65
2022/12/04 03:20:21;;;;;;;48.78;24.25;;;;;;;5.41;58.00;101653.59;5060530;28;20120;-64
2022/12/04 03:22:54;;;;;;;44.35;24.25;;;;;;;5.42;58.38;101653.41;5060228;28;20052;-64
2022/12/04 03:25:35;;;;;;;39.78;23.48;;;;;;;5.36;58.20;101645.25;5057145;28;20053;-64
2022/12/04 03:28:07;;;;;;;39.20;22.35;;;;;;;5.41;57.87;101650.94;5058222;28;20061;-66
2022/12/04 03:30:44;;;;;;;42.22;23.25;;;;;;;5.39;57.75;101648.44;5060544;28;20063;-65
2022/12/04 03:33:15;;;;;;;42.83;24.10;;;;;;;5.40;58.24;101643.94;5062225;28;20438;-64
2022/12/04 03:35:47;;;;;;;42.47;23.70;;;;;;;5.39;58.13;101652.94;5060405;28;20513;-64
2022/12/04 03:38:20;;;;;;;43.33;23.45;;;;;;;5.39;58.28;101647.59;5075922;28;20163;-64
2022/12/04 03:40:54;;;;;;;44.53;24.58;;;;;;;5.38;58.28;101643.25;5060223;28;20135;-64
2022/12/04 03:43:27;;;;;;;40.38;23.40;;;;;;;5.38;58.42;101644.09;5063658;28;20052;-66
2022/12/04 03:46:03;;;;;;;41.03;23.65;;;;;;;5.41;57.77;101649.09;5053312;28;20049;-64
2022/12/04 03:48:38;;;;;;;47.10;24.05;;;;;;;5.37;58.41;101644.25;5056829;28;20084;-65
2022/12/04 03:51:18;;;;;;;42.70;23.05;;;;;;;5.38;58.05;101637.94;5054245;28;20053;-64
2022/12/04 03:53:51;;;;;;;43.22;25.30;;;;;;;5.37;57.82;101636.28;5064019;28;20114;-65
2022/12/04 03:56:22;;;;;;;42.15;23.63;;;;;;;5.37;57.98;101638.94;5064255;28;20053;-64
2022/12/04 03:58:55;;;;;;;42.50;23.60;;;;;;;5.34;58.22;101625.94;5063052;28;20060;-65
2022/12/04 04:01:32;;;;;;;42.00;23.70;;;;;;;5.36;58.10;101635.44;5060469;28;20132;-64
2022/12/04 04:04:03;;;;;;;40.75;24.08;;;;;;;5.36;57.98;101638.09;5059177;28;20053;-64
2022/12/04 04:06:38;;;;;;;42.35;24.75;;;;;;;5.35;58.51;101636.44;5061753;28;20060;-65
2022/12/04 04:09:14;;;;;;;41.85;24.67;;;;;;;5.38;57.95;101643.25;5060966;28;20060;-66
2022/12/04 04:11:47;;;;;;;45.60;23.80;;;;;;;5.36;58.07;101634.59;5062031;28;20048;-64
2022/12/04 04:25:45;;;;;;;45.95;24.42;;;;;;;5.31;58.12;101644.94;5059375;28;20063;-64
2022/12/04 04:28:33;;;;;;;45.58;25.70;;;;;;;5.31;58.40;101640.44;5066658;28;20052;-65
2022/12/04 04:31:09;;;;;;;45.75;24.73;;;;;;;5.33;58.34;101638.44;5059222;28;20121;-65
2022/12/04 04:33:48;;;;;;;45.88;25.73;;;;;;;5.32;58.16;101636.78;5063272;28;20099;-63
2022/12/04 04:36:23;;;;;;;43.55;23.90;;;;;;;5.31;58.48;101637.78;5064150;28;20051;-63
2022/12/04 04:39:00;;;;;;;43.95;24.25;;;;;;;5.30;58.51;101640.59;5049309;28;20578;-64
2022/12/04 04:41:36;;;;;;;42.47;25.38;;;;;;;5.27;58.20;101635.63;5060781;28;20045;-64
2022/12/04 04:44:15;;;;;;;42.33;24.92;;;;;;;5.30;58.10;101636.09;5062237;28;20049;-64
2022/12/04 04:46:47;;;;;;;44.75;25.30;;;;;;;5.33;58.46;101635.78;5061142;28;20108;-66
2022/12/04 04:49:18;;;;;;;49.83;26.00;;;;;;;5.30;58.23;101635.28;5065034;28;20459;-64
2022/12/04 04:51:47;;;;;;;46.63;25.67;;;;;;;5.32;58.39;101633.28;5063022;28;20108;-64
2022/12/04 04:54:16;;;;;;;45.30;25.80;;;;;;;5.30;57.84;101640.59;5062626;28;20113;-64
2022/12/04 04:56:46;;;;;;;45.33;23.88;;;;;;;5.30;58.48;101638.78;5068785;28;20048;-64
2022/12/04 04:59:14;;;;;;;46.70;24.50;;;;;;;5.32;58.60;101642.09;5064244;28;20060;-64
2022/12/04 05:01:45;;;;;;;44.28;24.13;;;;;;;5.30;58.66;101645.94;5065722;28;20049;-64
2022/12/04 05:04:13;;;;;;;48.80;25.00;;;;;;;5.29;58.64;101644.28;5061853;28;20087;-64
2022/12/04 05:06:42;;;;;;;44.78;25.85;;;;;;;5.29;58.17;101638.94;5063934;28;20076;-64
2022/12/04 05:09:10;;;;;;;44.05;23.52;;;;;;;5.27;58.17;101646.28;5065545;28;20113;-63
2022/12/04 05:11:38;;;;;;;43.38;24.10;;;;;;;5.26;58.44;101642.78;5061744;28;20140;-64
2022/12/04 05:14:05;;;;;;;48.90;26.08;;;;;;;5.26;58.31;101641.94;5067052;28;20056;-64
2022/12/04 05:16:33;;;;;;;40.40;23.23;;;;;;;5.26;58.74;101656.09;5064072;28;20053;-64
2022/12/04 05:21:48;;;;;;;44.58;24.98;;;;;;;5.27;58.46;101643.59;5062427;28;20120;-64
2022/12/04 05:24:15;;;;;;;43.95;24.00;;;;;;;5.26;58.48;101653.44;5064352;28;20055;-64
2022/12/04 05:26:43;;;;;;;42.30;25.05;;;;;;;5.27;58.54;101638.28;5062552;28;20599;-64
2022/12/04 05:29:11;;;;;;;43.10;24.40;;;;;;;5.28;58.98;101643.44;5062725;28;20045;-63
2022/12/04 05:31:39;;;;;;;43.45;24.63;;;;;;;5.29;58.47;101638.94;5064338;28;20109;-65
2022/12/04 05:34:06;;;;;;;43.15;24.92;;;;;;;5.29;58.59;101642.44;5065097;28;20112;-64
2022/12/04 05:36:34;;;;;;;46.42;24.88;;;;;;;5.28;58.76;101638.09;5050486;28;20063;-64
2022/12/04 05:39:03;;;;;;;45.78;24.90;;;;;;;5.29;58.89;101644.28;5065594;28;20056;-64
2022/12/04 05:41:31;;;;;;;46.65;25.92;;;;;;;5.26;58.18;101641.94;5062336;28;20044;-64
2022/12/04 05:43:58;;;;;;;44.78;24.17;;;;;;;5.24;58.46;101634.94;5057041;28;20135;-64
2022/12/04 05:46:26;;;;;;;43.03;24.27;;;;;;;5.26;58.40;101632.13;5072931;28;20049;-64
2022/12/04 05:48:54;;;;;;;43.58;24.40;;;;;;;5.24;58.74;101632.28;5052878;28;20049;-64
2022/12/04 05:51:22;;;;;;;46.65;25.58;;;;;;;5.26;58.89;101626.78;5052041;28;20088;-64
2022/12/04 05:53:51;;;;;;;43.55;25.23;;;;;;;5.24;58.65;101626.94;5060436;28;20136;-64
2022/12/04 05:56:21;;;;;;;43.35;25.08;;;;;;;5.22;58.84;101622.78;5064884;28;20144;-65
2022/12/04 05:58:49;;;;;;;46.80;24.65;;;;;;;5.22;58.66;101625.44;5064047;28;20398;-64
2022/12/04 06:01:19;;;;;;;47.60;26.08;;;;;;;5.20;58.32;101624.81;5054554;28;20135;-64
2022/12/04 06:03:46;;;;;;;47.40;24.58;;;;;;;5.29;58.70;101620.28;5056577;28;20059;-64
2022/12/04 06:06:16;;;;;;;45.53;26.15;;;;;;;5.43;58.75;101616.94;5058835;28;20041;-64
2022/12/04 06:08:49;;;;;;;44.13;24.27;;;;;;;5.59;57.68;101619.56;5060866;28;20037;-64
2022/12/04 06:11:19;;;;;;;50.08;27.75;;;;;;;5.72;57.31;101611.88;5060988;28;20061;-65
2022/12/04 06:13:49;;;;;;;48.03;25.10;;;;;;;5.88;56.86;101625.16;5058635;28;20064;-64
2022/12/04 06:16:19;;;;;;;44.13;25.10;;;;;;;6.00;56.34;101614.97;5053161;28;20116;-63
2022/12/04 06:18:50;;;;;;;47.00;25.42;;;;;;;6.13;55.75;101625.91;5062782;28;20076;-66
2022/12/04 06:21:19;;;;;;;42.35;24.75;;;;;;;6.29;55.57;101611.66;5065573;28;20079;-65
2022/12/04 06:23:47;;;;;;;42.67;24.50;;;;;;;6.49;55.34;101617.41;5060650;28;20077;-66
2022/12/04 06:26:15;;;;;;;41.85;24.00;;;;;;;6.65;54.41;101613.78;5063395;28;20052;-64
2022/12/04 06:28:43;;;;;;;42.40;23.90;;;;;;;6.77;54.56;101610.53;5060372;28;20044;-64
2022/12/04 06:31:14;;;;;;;48.35;25.33;;;;;;;6.88;53.89;101619.97;5059649;28;20061;-63
2022/12/04 06:33:42;;;;;;;42.97;23.83;;;;;;;6.93;53.59;101620.25;5062745;28;20466;-63
2022/12/04 06:36:12;;;;;;;44.45;24.88;;;;;;;6.92;53.80;101623.94;5059492;28;20056;-66
2022/12/04 06:38:40;;;;;;;44.47;23.48;;;;;;;6.82;53.80;101626.03;5061451;28;20045;-65
2022/12/04 06:41:09;;;;;;;43.15;24.20;;;;;;;6.64;54.52;101622.81;5057429;28;20045;-65
2022/12/04 06:43:37;;;;;;;47.47;25.00;;;;;;;6.45;55.19;101619.59;5049914;28;20113;-65
2022/12/04 06:46:07;;;;;;;45.22;24.88;;;;;;;6.29;55.62;101621.50;5064319;28;20052;-66
2022/12/04 06:48:37;;;;;;;46.55;24.90;;;;;;;6.18;56.27;101636.91;5065398;28;20060;-65
2022/12/04 06:51:07;;;;;;;43.58;24.52;;;;;;;6.11;56.19;101633.28;5064322;28;20058;-63
2022/12/04 06:53:35;;;;;;;46.15;25.27;;;;;;;6.02;56.42;101633.47;5060918;28;20057;-65
2022/12/04 06:56:16;;;;;;;39.97;24.00;;;;;;;5.87;57.01;101615.50;5063823;28;20053;-65
2022/12/04 06:58:44;;;;;;;44.30;24.70;;;;;;;5.93;56.81;101634.50;5060657;28;20041;-64
2022/12/04 07:01:14;;;;;;;42.78;23.80;;;;;;;5.88;56.94;101633.16;5061606;28;20064;-65
2022/12/04 07:03:44;;;;;;;46.78;26.33;;;;;;;5.84;57.16;101631.00;5061764;28;20055;-65
2022/12/04 07:06:20;;;;;;;42.08;22.83;;;;;;;5.79;57.09;101636.84;5057391;28;20056;-65
2022/12/04 07:08:51;;;;;;;44.55;25.50;;;;;;;5.75;57.43;101643.53;5059364;28;20112;-65
2022/12/04 07:11:20;;;;;;;46.83;23.92;;;;;;;5.68;58.02;101637.22;5060102;28;20122;-66
2022/12/04 07:13:48;;;;;;;47.00;26.08;;;;;;;5.67;57.56;101651.56;5054048;28;20045;-66
2022/12/04 07:16:19;;;;;;;47.22;24.35;;;;;;;5.64;57.83;101651.06;5066028;28;20045;-64
2022/12/04 07:18:52;;;;;;;43.88;24.40;;;;;;;5.62;58.02;101648.56;5063238;28;20111;-65
2022/12/04 07:21:21;;;;;;;44.10;23.75;;;;;;;5.60;58.25;101655.91;5059507;28;20053;-64
2022/12/04 07:23:50;;;;;;;43.08;24.02;;;;;;;5.59;58.20;101656.91;5059316;28;20049;-65
2022/12/04 07:26:18;;;;;;;43.50;25.17;;;;;;;5.57;58.11;101656.22;5064012;28;20064;-65
2022/12/04 07:28:46;;;;;;;41.70;25.10;;;;;;;5.57;58.29;101666.91;5061040;28;20100;-65
2022/12/04 07:31:16;;;;;;;42.20;24.15;;;;;;;5.56;58.51;101650.06;5057431;28;20053;-65
2022/12/04 07:33:45;;;;;;;41.72;24.13;;;;;;;5.50;58.23;101665.91;5059476;28;20401;-65
2022/12/04 07:36:18;;;;;;;44.13;24.00;;;;;;;5.54;58.48;101661.91;5061586;28;20049;-65
2022/12/04 07:38:46;;;;;;;44.55;25.20;;;;;;;5.70;57.74;101658.38;5060925;28;20041;-65
2022/12/04 07:41:15;;;;;;;40.97;23.92;;;;;;;5.84;57.51;101660.34;5060379;28;20140;-66
2022/12/04 07:43:43;;;;;;;44.05;23.20;;;;;;;6.00;56.94;101664.84;5061666;28;20044;-67
2022/12/04 07:46:13;;;;;;;40.63;24.27;;;;;;;6.18;56.63;101660.09;5059706;28;20487;-66
2022/12/04 07:48:41;;;;;;;41.38;23.65;;;;;;;6.33;55.83;101662.88;5060644;28;20151;-66
2022/12/04 07:51:11;;;;;;;43.58;24.38;;;;;;;6.39;55.78;101654.16;5058617;28;20057;-64
2022/12/04 07:53:40;;;;;;;39.88;23.20;;;;;;;6.48;55.39;101664.63;5075091;28;20064;-65
2022/12/04 07:56:10;;;;;;;40.80;22.83;;;;;;;6.43;55.25;101663.50;5067188;28;20049;-62
2022/12/04 07:58:39;;;;;;;38.60;21.63;;;;;;;6.36;55.63;101670.53;5063010;28;20528;-63
2022/12/04 08:01:08;;;;;;;37.30;21.98;;;;;;;6.26;56.20;101668.06;5061715;28;20049;-63
2022/12/04 08:03:36;;;;;;;37.20;22.23;;;;;;;6.17;56.57;101671.78;5062254;28;20049;-64
2022/12/04 08:06:12;;;;;;;42.88;23.52;;;;;;;6.06;56.81;101672.97;5066089;28;20470;-61
2022/12/04 08:08:41;;;;;;;40.47;21.23;;;;;;;6.00;56.67;101675.50;5064541;28;20056;-65
2022/12/04 08:11:11;;;;;;;41.97;22.08;;;;;;;5.93;57.31;101682.53;5062910;28;20063;-66
2022/12/04 08:13:39;;;;;;;39.05;23.48;;;;;;;5.90;57.51;101681.03;5065260;28;20109;-61
2022/12/04 08:16:09;;;;;;;35.83;20.77;;;;;;;5.87;57.78;101681.34;5065189;28;20045;-64
2022/12/04 08:18:38;;;;;;;37.88;21.35;;;;;;;5.82;57.82;101681.03;5060579;28;20045;-64
2022/12/04 08:21:09;;;;;;;33.83;20.25;;;;;;;5.80;58.17;101685.69;5062232;28;20102;-64
2022/12/04 08:23:40;;;;;;;35.13;21.10;;;;;;;5.76;57.78;101679.88;5063600;28;20083;-64
2022/12/04 08:26:09;;;;;;;34.25;20.45;;;;;;;5.74;57.95;101684.53;5062983;28;20140;-65
2022/12/04 08:28:37;;;;;;;41.47;22.02;;;;;;;5.71;58.11;101684.88;5063568;28;20044;-64
2022/12/04 08:31:07;;;;;;;36.97;20.50;;;;;;;5.68;58.75;101679.06;5065169;28;20060;-64
2022/12/04 08:33:35;;;;;;;35.83;21.10;;;;;;;5.67;58.29;101675.56;5061735;28;20053;-65
2022/12/04 08:36:06;;;;;;;36.45;21.23;;;;;;;5.65;58.19;101676.72;5063274;28;20049;-66
2022/12/04 08:38:34;;;;;;;39.30;21.20;;;;;;;5.63;58.02;101682.22;5062250;28;20044;-67
2022/12/04 08:41:02;;;;;;;36.47;20.65;;;;;;;5.57;58.28;101674.91;5065673;28;20139;-65
2022/12/04 08:43:32;;;;;;;34.42;20.02;;;;;;;5.55;58.29;101672.41;5075852;28;20056;-64
2022/12/04 08:46:02;;;;;;;34.63;20.20;;;;;;;5.55;58.45;101675.06;5069757;28;20072;-64
2022/12/04 08:48:31;;;;;;;37.13;20.08;;;;;;;5.56;58.05;101674.06;5059767;28;20049;-65
2022/12/04 08:50:59;;;;;;;32.85;19.92;;;;;;;5.55;58.45;101674.22;5064487;28;20520;-64
2022/12/04 08:53:27;;;;;;;36.08;19.73;;;;;;;5.54;58.07;101677.91;5059581;28;20386;-64
2022/12/04 08:55:54;;;;;;;33.65;20.25;;;;;;;5.53;58.00;101671.75;5061563;28;20057;-64
2022/12/04 08:58:23;;;;;;;33.00;19.75;;;;;;;5.53;58.21;101662.91;5065134;28;20048;-64
2022/12/04 09:00:52;;;;;;;32.60;18.92;;;;;;;5.52;58.43;101666.56;5065375;28;20051;-64
2022/12/04 09:03:21;;;;;;;30.92;19.52;;;;;;;5.51;58.37;101662.25;5065845;28;20072;-64
2022/12/04 09:05:59;;;;;;;33.15;18.63;;;;;;;5.53;58.87;101673.56;5061390;28;20057;-64
2022/12/04 09:08:26;;;;;;;34.53;19.10;;;;;;;5.53;58.42;101682.41;5073974;28;20068;-63
2022/12/04 09:10:54;;;;;;;34.20;19.15;;;;;;;5.54;58.67;101670.75;5062517;28;20065;-63
2022/12/04 09:13:22;;;;;;;31.38;18.33;;;;;;;5.49;58.49;101677.56;5066979;28;20083;-64
2022/12/04 09:15:50;;;;;;;33.55;18.45;;;;;;;5.51;58.48;101678.25;5074431;28;20188;-64
2022/12/04 09:18:19;;;;;;;33.25;18.95;;;;;;;5.48;58.50;101683.91;5064079;28;20465;-64
2022/12/04 09:20:55;;;;;;;30.38;18.73;;;;;;;5.48;58.19;101687.41;5066639;28;20051;-64
2022/12/04 09:23:23;;;;;;;31.02;19.33;;;;;;;5.46;58.25;101678.75;5061502;28;20497;-64
2022/12/04 09:25:51;;;;;;;29.02;17.80;;;;;;;5.48;58.45;101683.91;5065942;28;20041;-64
2022/12/04 09:28:19;;;;;;;30.90;17.52;;;;;;;5.51;58.19;101681.75;5063477;28;20051;-64
2022/12/04 09:30:56;;;;;;;29.33;18.27;;;;;;;5.66;57.63;101692.56;5056862;28;20055;-64
2022/12/04 09:33:25;;;;;;;26.98;16.10;;;;;;;5.72;57.51;101685.72;5061087;28;20490;-66
2022/12/04 09:35:53;;;;;;;33.10;17.88;;;;;;;5.71;57.68;101694.72;5063065;28;20179;-65
2022/12/04 09:38:21;;;;;;;29.80;17.48;;;;;;;5.74;57.25;101681.03;5060265;28;20056;-64
2022/12/04 09:40:57;;;;;;;27.83;17.33;;;;;;;5.75;57.43;101682.72;5062447;28;20047;-65
2022/12/04 09:43:32;;;;;;;27.17;16.35;;;;;;;5.71;57.56;101676.88;5064077;28;20055;-65
2022/12/04 09:46:07;;;;;;;25.70;15.57;;;;;;;5.71;57.87;101670.72;5065941;28;20067;-65
2022/12/04 09:48:41;;;;;;;25.80;15.57;;;;;;;5.86;57.18;101671.69;5063265;28;20125;-64
2022/12/04 09:51:17;;;;;;;25.95;15.35;;;;;;;6.00;56.84;101668.34;5061723;28;20053;-63
2022/12/04 09:53:48;;;;;;;29.38;16.85;;;;;;;6.13;56.35;101681.97;5062183;28;20052;-64
2022/12/04 09:56:19;;;;;;;28.50;15.90;;;;;;;6.27;56.01;101687.59;5067422;28;20052;-64
2022/12/04 09:58:50;;;;;;;28.60;16.65;;;;;;;6.42;55.26;101685.84;5075842;28;20076;-64
2022/12/04 10:01:23;;;;;;;26.35;15.07;;;;;;;6.59;54.56;101686.59;5062302;28;20056;-64
2022/12/04 10:03:54;;;;;;;26.80;16.40;;;;;;;6.75;54.82;101692.69;5063451;28;20045;-64
2022/12/04 10:06:32;;;;;;;26.10;15.05;;;;;;;6.93;53.93;101695.09;5068747;28;20049;-64
2022/12/04 10:09:03;;;;;;;27.85;15.25;;;;;;;7.06;53.57;101694.47;5064378;28;20485;-64
2022/12/04 10:11:44;;;;;;;27.25;15.70;;;;;;;7.08;53.69;101685.25;5064269;28;20053;-65
2022/12/04 10:14:37;;;;;;;29.80;16.60;;;;;;;6.99;53.47;101680.97;5048386;28;20153;-64
2022/12/04 10:17:24;;;;;;;26.70;15.13;;;;;;;6.80;53.69;101676.13;5061752;28;20052;-66
2022/12/04 10:20:11;;;;;;;26.80;14.65;;;;;;;6.58;54.62;101669.75;4711211;28;10000437;-64
2022/12/04 10:22:53;;;;;;;25.83;14.77;;;;;;;6.41;55.09;101677.00;5063246;28;20112;-64
2022/12/04 10:25:22;;;;;;;25.67;15.43;;;;;;;6.30;55.72;101679.22;5058785;28;20119;-64
2022/12/04 10:27:55;;;;;;;27.20;16.60;;;;;;;6.23;55.83;101672.94;5059180;28;20049;-64
2022/12/04 10:30:25;;;;;;;26.00;14.88;;;;;;;6.17;56.29;101674.44;5048190;28;20425;-64
2022/12/04 10:32:58;;;;;;;25.85;15.07;;;;;;;6.14;56.57;101686.31;5060487;28;20121;-64
2022/12/04 10:35:29;;;;;;;24.10;14.70;;;;;;;6.22;56.39;101684.59;5057504;28;20049;-64
2022/12/04 10:38:02;;;;;;;22.60;13.75;;;;;;;6.38;55.55;101687.22;5053494;28;20056;-63
2022/12/04 10:40:35;;;;;;;27.45;16.00;;;;;;;6.54;55.76;101692.47;5054395;28;20049;-64
2022/12/04 10:43:12;;;;;;;29.10;15.95;;;;;;;6.72;55.31;101684.19;5060211;28;20084;-64
2022/12/04 10:45:39;;;;;;;25.02;15.40;;;;;;;6.85;54.88;101682.59;5051270;28;20045;-63
2022/12/04 10:48:12;;;;;;;26.42;14.80;;;;;;;6.96;54.54;101685.84;5052515;28;20068;-62
2022/12/04 10:50:41;;;;;;;25.45;15.40;;;;;;;6.94;54.75;101680.69;5058250;28;20126;-63
2022/12/04 10:53:12;;;;;;;29.23;15.20;;;;;;;6.81;54.03;101681.31;5053685;28;20067;-63
2022/12/04 10:55:41;;;;;;;26.17;15.95;;;;;;;6.64;54.67;101666.38;5057982;28;20041;-63
2022/12/04 10:58:15;;;;;;;26.67;16.08;;;;;;;6.52;55.44;101667.78;5064923;28;20140;-64
2022/12/04 11:00:45;;;;;;;26.35;15.73;;;;;;;6.41;55.94;101662.84;5059125;28;21321;-63
2022/12/04 11:03:24;;;;;;;26.77;15.25;;;;;;;6.31;56.60;101668.38;5059896;28;20041;-63
2022/12/04 11:05:58;;;;;;;24.45;14.85;;;;;;;6.26;56.33;101670.75;5056935;28;20079;-62
2022/12/04 11:08:30;;;;;;;24.70;14.63;;;;;;;6.20;56.67;101661.59;5060306;28;20097;-63
2022/12/04 11:11:01;;;;;;;26.95;15.80;;;;;;;6.18;56.67;101660.94;5059500;28;20048;-63
2022/12/04 11:13:29;;;;;;;23.65;15.00;;;;;;;6.14;56.95;101656.09;5053770;28;20053;-63
2022/12/04 11:15:58;;;;;;;26.58;16.35;;;;;;;6.05;56.81;101641.97;5062779;28;20049;-63
2022/12/04 11:18:27;;;;;;;26.02;15.05;;;;;;;6.05;56.99;101649.97;5057061;28;20040;-63
2022/12/04 11:20:59;;;;;;;24.92;15.88;;;;;;;6.02;56.70;101649.50;5058666;28;20053;-63
2022/12/04 11:23:31;;;;;;;26.48;15.68;;;;;;;5.98;56.68;101649.00;5063110;28;20086;-63
2022/12/04 11:26:00;;;;;;;27.67;17.15;;;;;;;5.91;56.96;101639.19;5059098;28;20045;-63
2022/12/04 11:28:34;;;;;;;24.20;14.88;;;;;;;5.90;57.10;101650.84;5053555;28;20049;-63
2022/12/04 11:31:10;;;;;;;;;;;;;;;5.87;57.05;101639.50;5060778;28;20076;-65
2022/12/04 11:33:44;;;;;;;24.45;14.98;;;;;;;5.84;57.28;101639.84;5061009;28;19921;-63
2022/12/04 11:36:22;;;;;;;25.13;15.27;;;;;;;5.96;57.11;101645.66;5058064;28;20498;-64
2022/12/04 11:38:51;;;;;;;25.23;15.77;;;;;;;6.09;56.52;101643.28;5058189;28;20045;-64
2022/12/04 11:41:27;;;;;;;26.05;14.80;;;;;;;6.24;56.02;101635.38;5060612;28;20082;-64
2022/12/04 11:43:56;;;;;;;24.17;15.45;;;;;;;6.36;55.83;101643.84;5061699;28;20108;-64
2022/12/04 11:46:29;;;;;;;25.65;15.35;;;;;;;6.55;55.47;101645.25;5063823;28;20425;-64
2022/12/04 11:48:57;;;;;;;25.30;14.55;;;;;;;6.63;54.75;101647.84;5062663;28;20083;-64